Findern, United Kingdom
Current Conditions -  °F | °C
As of 3:20 AM on Wednesday 26 Nov 2014 (Local Time) from EGNX Reporting Station
Light Rain Light Rain  
Wind Chill:   Ceiling: 3300
Heat Index:   Visibility: 4mi
Dew Point:   Wind: 8mph
Humidity: 100%   Direction: 50°NE
Pressure: 29.97"   Gusts: NA
Location:  52.87°N, 1.54°W
Report Text: EGNX 260320Z 05007KT 7000 -RA SCT017 BKN033 07/07 Q1015
Loading
Personal Weather Stations






























Interactive Weather Map New forecast layout! Learn more

10-Day Weather Forecast

Advertisements
Track Severe Weather on mobile